KDVN

Davenport Municipal Airport

Davenport, Iowa, USA
METAR KDVN 150252Z AUTO 16005KT 10SM CLR 24/19 A2995 RMK AO2 SLP131 T02440194 50004
Observed Flight Rules
Aug-15 @ 02:52 UTC (45 minutes ago) Visual Flight Rules
Wind Visibility Clouds
160° at 5 knots 10 miles
  • Clear skies
Temperatures Readings
Current 24°C / 75°F
Dewpoint 19°C / 66°F
Humidity 74%
Altimeter 29.95" Hg
Pressure 1013.1 hPa
Elevation 230
METAR KDVN 150252Z AUTO 16005KT 10SM CLR 24/19 A2995 RMK AO2 SLP131 T02440194 50004
Observed Flight Rules
Aug-15 @ 02:52 UTC
(45 minutes ago)
VFR
Wind Visibility
160° at 5 knots 10 miles
Clouds
  • Clear skies
Temperature Dewpoint
24°C / 75°F 19°C / 66°F
Humidity Altimeter Pressure
74% 29.95" Hg 1013.1 hPa